LETO/TOJ METAR and TAF weather

Enter ICAO airport designator
Station Type Date Time Source
LETO METAR 2020/09/18 06:30 UTC NOAA

LETO 180630Z 18010KT 9999 FEW040 SCT060 19/13 Q1013 NOSIG


Station Type Date Time Source
LETO Decoded METAR 2020/09/18 06:30 UTC NOAA

Madrid / Torrejon, Spain (LETO) 40-29N 003-27W 611M
Sep 18, 2020 - 02:30 AM EDT / 2020.09.18 0630 UTC
Wind: from the S (180 degrees) at 12 MPH (10 KT):0
Visibility: greater than 7 mile(s):0
Sky conditions: partly cloudy
Temperature: 66 F (19 C)
Dew Point: 55 F (13 C)
Relative Humidity: 68%
Pressure (altimeter): 29.91 in. Hg (1013 hPa)
ob: LETO 180630Z 18010KT 9999 FEW040 SCT060 19/13 Q1013 NOSIG
cycle: 6

Station Type Date Time Source
LETO TAF 2020/09/18 06:27 UTC NOAA

TAF TAF LETO 180500Z 1806/1906 17012KT 9999 SCT050 TX21/1814Z TN14/1906Z
TEMPO 1806/1906 3000 SHRA RA SCT030TCU PROB40
TEMPO 1808/1820 VRB15G25KT 2000 TSRA SHGR SCT018CB

Example: see airport list